Terminal Aerodrome Forecast
Issued by NWS

Home | Current Version | Previous Version | Text Only | Print | Product List | Glossary On
Versions: 1 2 3 4 5 6 7 8 9 10 11 12 13 14 15 16 17
000
FTUS42 TJSJ 170841 AAC
TAFJPS
TAF AMD
TJPS 170841Z 1709/1806 08007KT P6SM VCTS FEW020 SCT030CB BKN050
      TEMPO 1709/1711 2SM TSRA BKN020CB
     FM171500 12010KT P6SM +RA SCT035 BKN050
     FM171800 14010KT P6SM SHRA VCTS SCT030CB BKN050
     FM180300 07008KT P6SM VCSH SCT030=

USA.gov is the U.S. government's official web portal to all federal, state and local government web resources and services.